CID weather

The Eastern Iowa Airport
Cedar Rapids, Iowa, United States

Public forecast

Using degrees Fahrenheit for public forecast. Weather courtesy of forecast.io.

METAR (pilot weather report)

Retrieved 2019/06/17 18:27 UTC (22 minutes ago):

KCID 171827Z 36005KT 10SM SCT020 22/16 A3000

TAF (pilot weather forecast)

Retrieved 2019/06/17 18:33 UTC (16 minutes ago):

TAF KCID 171729Z 1718/1818 07005KT P6SM BKN020 FM180100 VRB03KT P6SM SCT035 SCT100 FM180900 00000KT 3SM BR SCT060 FM181500 VRB03KT P6SM BKN035